createdAt,value
2023-03-14T00:03:09.537Z,9.38
2023-03-14T00:08:13.570Z,9.29
2023-03-14T00:13:10.618Z,9.33
2023-03-14T00:18:07.608Z,8.91
2023-03-14T00:23:04.333Z,8.53
2023-03-14T00:28:03.938Z,8.46
2023-03-14T00:33:01.665Z,8.56
2023-03-14T00:38:00.917Z,9.00
2023-03-14T00:43:00.715Z,9.39
2023-03-14T00:48:08.002Z,9.40
2023-03-14T00:53:13.167Z,9.41
2023-03-14T00:58:10.542Z,9.56
2023-03-14T01:03:10.148Z,9.63
2023-03-14T01:08:08.741Z,9.69
2023-03-14T01:13:08.295Z,9.78
2023-03-14T01:18:14.239Z,9.89
2023-03-14T01:23:14.033Z,9.77
2023-03-14T01:28:10.998Z,9.73
2023-03-14T01:33:13.703Z,9.68
2023-03-14T01:38:18.463Z,9.63
2023-03-14T01:43:19.096Z,9.83
2023-03-14T01:48:18.413Z,9.84
2023-03-14T01:53:16.017Z,9.64
2023-03-14T01:58:18.730Z,9.84
2023-03-14T02:03:17.698Z,9.90
2023-03-14T02:08:17.689Z,9.81
2023-03-14T02:13:22.841Z,9.81
2023-03-14T02:18:48.566Z,9.84
2023-03-14T02:24:09.849Z,9.76
2023-03-14T02:29:13.924Z,9.68
2023-03-14T02:34:15.050Z,9.55
2023-03-14T02:39:15.210Z,9.50
2023-03-14T02:44:15.620Z,9.46
2023-03-14T02:49:14.843Z,9.58
2023-03-14T02:54:16.205Z,9.61
2023-03-14T02:59:13.777Z,9.36
2023-03-14T03:04:34.493Z,9.74
2023-03-14T03:09:33.821Z,9.98
2023-03-14T03:14:30.921Z,9.88
2023-03-14T03:19:32.592Z,9.56
2023-03-14T03:24:31.063Z,9.55
2023-03-14T03:29:27.894Z,9.54
2023-03-14T03:34:25.753Z,9.53
2023-03-14T03:39:26.802Z,9.50
2023-03-14T03:44:28.137Z,9.66
2023-03-14T03:49:25.102Z,9.74
2023-03-14T03:54:23.458Z,9.61
2023-03-14T03:59:20.379Z,9.57
2023-03-14T04:04:21.905Z,9.56
2023-03-14T04:09:21.223Z,9.62
2023-03-14T04:14:39.499Z,9.68
2023-03-14T04:19:45.366Z,9.46
2023-03-14T04:24:45.017Z,9.49
2023-03-14T04:29:41.947Z,9.34
2023-03-14T04:34:40.971Z,9.18
2023-03-14T04:39:40.246Z,8.86
2023-03-14T04:44:59.283Z,8.79
2023-03-14T04:49:58.463Z,9.00
2023-03-14T04:54:56.966Z,8.87
2023-03-14T04:59:56.222Z,8.72
2023-03-14T05:05:13.774Z,8.44
2023-03-14T05:10:23.895Z,8.29
2023-03-14T05:15:39.135Z,8.48
2023-03-14T05:20:54.499Z,8.70
2023-03-14T05:26:01.062Z,8.83
2023-03-14T05:31:20.267Z,8.91
2023-03-14T05:36:24.278Z,9.03
2023-03-14T05:41:45.394Z,9.01
2023-03-14T05:47:11.388Z,8.97
2023-03-14T05:52:23.054Z,8.95
2023-03-14T05:57:51.095Z,9.04
2023-03-14T06:03:07.591Z,9.14
2023-03-14T06:08:10.720Z,9.01
2023-03-14T06:13:13.810Z,9.14
2023-03-14T06:18:10.866Z,9.04
2023-03-14T06:23:08.256Z,9.16
2023-03-14T06:28:10.754Z,9.31
2023-03-14T06:33:20.557Z,9.55
2023-03-14T06:38:22.182Z,9.47
2023-03-14T06:43:27.280Z,9.63
2023-03-14T06:48:27.733Z,9.61
2023-03-14T06:53:30.695Z,9.48
2023-03-14T06:58:33.439Z,9.60
2023-03-14T07:03:35.318Z,9.66
2023-03-14T07:08:35.670Z,9.87
2023-03-14T07:13:34.368Z,9.98
2023-03-14T07:18:36.758Z,10.02
2023-03-14T07:23:43.965Z,10.13
2023-03-14T07:28:43.121Z,9.98
2023-03-14T07:34:06.283Z,10.13
2023-03-14T07:39:25.352Z,10.13
2023-03-14T07:44:34.549Z,10.04
2023-03-14T07:49:31.465Z,9.93
2023-03-14T07:54:43.894Z,9.58
2023-03-14T07:59:49.931Z,9.97
2023-03-14T08:04:48.490Z,10.14
2023-03-14T08:09:45.304Z,10.15
2023-03-14T08:14:47.612Z,10.33
2023-03-14T08:19:55.535Z,10.22
2023-03-14T08:25:01.594Z,10.71
2023-03-14T08:30:14.911Z,10.94
2023-03-14T08:35:17.198Z,10.60
2023-03-14T08:40:33.008Z,10.50
2023-03-14T08:45:50.095Z,11.01
2023-03-14T08:50:56.147Z,11.07
2023-03-14T08:55:55.697Z,11.32
2023-03-14T09:00:57.607Z,11.48
2023-03-14T09:06:09.063Z,11.66
2023-03-14T09:11:18.751Z,11.30
2023-03-14T09:16:27.779Z,11.57
2023-03-14T09:21:34.531Z,11.85
2023-03-14T09:26:32.809Z,11.72
2023-03-14T09:31:58.986Z,11.63
2023-03-14T09:37:14.508Z,11.52
2023-03-14T09:42:16.646Z,11.69
2023-03-14T09:47:18.000Z,11.90
2023-03-14T09:52:44.557Z,11.92
2023-03-14T09:57:50.888Z,12.18
2023-03-14T10:02:52.293Z,12.21
2023-03-14T10:08:02.374Z,12.46
2023-03-14T10:13:11.468Z,12.64
2023-03-14T10:18:16.270Z,13.00
2023-03-14T10:23:42.832Z,13.56
2023-03-14T10:28:49.355Z,13.66
2023-03-14T10:34:03.584Z,13.89
2023-03-14T10:39:22.660Z,14.10
2023-03-14T10:44:35.194Z,14.25
2023-03-14T10:49:50.389Z,14.47
2023-03-14T10:55:05.270Z,14.40
2023-03-14T11:00:13.345Z,14.62
2023-03-14T11:05:46.383Z,14.63
2023-03-14T11:10:54.826Z,14.78
2023-03-14T11:16:13.516Z,14.94
2023-03-14T11:21:36.093Z,15.00
2023-03-14T11:26:38.362Z,15.05
2023-03-14T11:31:51.722Z,14.60
2023-03-14T11:36:56.947Z,14.74
2023-03-14T11:42:00.749Z,14.75
2023-03-14T11:47:13.561Z,14.85
2023-03-14T11:52:20.353Z,14.85
2023-03-14T11:57:24.933Z,14.89
2023-03-14T12:02:29.721Z,15.04
2023-03-14T12:07:32.590Z,15.21
2023-03-14T12:12:42.336Z,15.57
2023-03-14T12:17:53.481Z,15.76
2023-03-14T12:22:54.760Z,15.85
2023-03-14T12:28:15.720Z,15.95
2023-03-14T12:33:29.675Z,15.95
2023-03-14T12:38:38.159Z,15.79
2023-03-14T12:43:40.429Z,16.13
2023-03-14T12:49:01.362Z,16.34
2023-03-14T12:54:27.910Z,16.18
2023-03-14T12:59:36.771Z,17.00
2023-03-14T13:04:41.333Z,17.09
2023-03-14T13:10:01.630Z,17.56
2023-03-14T13:15:10.755Z,17.21
2023-03-14T13:20:14.228Z,17.75
2023-03-14T13:25:14.495Z,17.51
2023-03-14T13:30:19.748Z,17.31
2023-03-14T13:35:48.029Z,18.03
2023-03-14T13:40:52.388Z,17.82
2023-03-14T13:46:02.225Z,17.93
2023-03-14T13:51:02.915Z,17.73
2023-03-14T13:56:24.861Z,17.63
2023-03-14T14:01:51.143Z,17.57
2023-03-14T14:07:30.485Z,17.89
2023-03-14T14:12:37.227Z,17.73
2023-03-14T14:17:38.276Z,17.57
2023-03-14T14:22:43.952Z,17.71
2023-03-14T14:28:01.843Z,17.62
2023-03-14T14:33:15.784Z,17.47
2023-03-14T14:38:19.044Z,17.45
2023-03-14T14:43:20.251Z,17.39
2023-03-14T14:48:21.610Z,17.68
2023-03-14T14:53:34.851Z,17.91
2023-03-14T14:58:40.967Z,17.68
2023-03-14T15:04:17.354Z,17.66
2023-03-14T15:09:42.644Z,17.62
2023-03-14T15:14:53.326Z,17.54
2023-03-14T15:19:50.960Z,17.73
2023-03-14T15:25:43.451Z,17.39
2023-03-14T15:30:51.641Z,17.26
2023-03-14T15:36:03.110Z,17.19
2023-03-14T15:41:04.089Z,17.20
2023-03-14T15:46:10.615Z,17.02
2023-03-14T15:51:12.741Z,17.09
2023-03-14T15:56:12.546Z,16.91
2023-03-14T16:01:13.290Z,16.85
2023-03-14T16:06:13.792Z,16.81
2023-03-14T16:11:16.904Z,16.89
2023-03-14T16:16:27.093Z,16.61
2023-03-14T16:21:38.216Z,16.38
2023-03-14T16:26:42.757Z,16.35
2023-03-14T16:32:01.808Z,16.21
2023-03-14T16:37:12.107Z,16.22
2023-03-14T16:42:10.526Z,16.03
2023-03-14T16:47:10.910Z,15.97
2023-03-14T16:52:12.252Z,15.84
2023-03-14T16:57:10.930Z,15.80
2023-03-14T17:02:09.449Z,15.70
2023-03-14T17:07:10.054Z,15.68
2023-03-14T17:12:14.340Z,15.47
2023-03-14T17:17:12.293Z,15.39
2023-03-14T17:22:22.361Z,15.40
2023-03-14T17:27:22.409Z,15.26
2023-03-14T17:32:25.252Z,15.21
2023-03-14T17:37:26.144Z,15.16
2023-03-14T17:42:27.617Z,14.90
2023-03-14T17:47:24.584Z,14.79
2023-03-14T17:52:24.828Z,14.67
2023-03-14T17:57:21.829Z,14.59
2023-03-14T18:02:23.315Z,14.28
2023-03-14T18:07:20.554Z,14.07
2023-03-14T18:12:18.534Z,13.93
2023-03-14T18:17:15.469Z,13.61
2023-03-14T18:22:14.057Z,13.52
2023-03-14T18:27:13.382Z,13.15
2023-03-14T18:32:12.640Z,13.00
2023-03-14T18:37:14.483Z,13.15
2023-03-14T18:42:11.591Z,12.93
2023-03-14T18:47:11.847Z,12.91
2023-03-14T18:52:11.299Z,12.80
2023-03-14T18:57:08.105Z,12.91
2023-03-14T19:02:05.114Z,12.81
2023-03-14T19:07:03.054Z,12.87
2023-03-14T19:12:02.268Z,12.83
2023-03-14T19:17:01.798Z,12.82
2023-03-14T19:22:00.746Z,12.72
2023-03-14T19:27:01.901Z,12.53
2023-03-14T19:32:02.963Z,12.54
2023-03-14T19:37:10.883Z,12.24
2023-03-14T19:42:11.323Z,12.13
2023-03-14T19:47:08.333Z,12.35
2023-03-14T19:52:05.461Z,12.28
2023-03-14T19:57:04.886Z,12.53
2023-03-14T20:02:02.544Z,12.87
2023-03-14T20:06:59.554Z,12.99
2023-03-14T20:11:56.398Z,12.89
2023-03-14T20:17:02.837Z,13.03
2023-03-14T20:22:04.292Z,13.08
2023-03-14T20:27:03.674Z,12.55
2023-03-14T20:32:04.929Z,12.82
2023-03-14T20:37:05.887Z,12.74
2023-03-14T20:42:04.789Z,12.94
2023-03-14T20:47:03.117Z,13.13
2023-03-14T20:51:59.934Z,12.93
2023-03-14T20:56:57.565Z,12.32
2023-03-14T21:07:19.648Z,11.55
2023-03-14T21:12:17.250Z,11.58
2023-03-14T21:17:17.068Z,11.43
2023-03-14T21:22:18.057Z,11.55
2023-03-14T21:27:16.710Z,11.42
2023-03-14T21:32:16.946Z,11.23
2023-03-14T21:37:15.304Z,10.91
2023-03-14T21:42:13.806Z,10.95
2023-03-14T21:47:10.801Z,10.92
2023-03-14T21:52:10.424Z,11.05
2023-03-14T21:57:08.272Z,11.19
2023-03-14T22:02:06.694Z,11.48
2023-03-14T22:07:03.637Z,11.68
2023-03-14T22:12:01.618Z,11.12
2023-03-14T22:16:59.330Z,11.09
2023-03-14T22:22:00.587Z,11.46
2023-03-14T22:27:01.006Z,11.28
2023-03-14T22:32:01.542Z,11.23
2023-03-14T22:37:00.237Z,11.63
2023-03-14T22:42:00.474Z,11.71
2023-03-14T22:46:57.435Z,11.87
2023-03-14T22:51:55.007Z,11.55
2023-03-14T22:56:51.981Z,11.38
2023-03-14T23:01:51.905Z,11.68
2023-03-14T23:06:48.797Z,11.83
2023-03-14T23:11:51.488Z,11.58
2023-03-14T23:16:48.379Z,11.62
2023-03-14T23:21:45.737Z,11.68
2023-03-14T23:26:45.645Z,11.51
2023-03-14T23:31:43.637Z,11.60
2023-03-14T23:36:40.695Z,11.64
2023-03-14T23:41:37.548Z,11.62
2023-03-14T23:46:34.626Z,11.63
2023-03-14T23:51:32.088Z,11.78
2023-03-14T23:56:30.710Z,11.46
